sensor_id;sensor_type;location;lat;lon;timestamp;P1;durP1;ratioP1;P2;durP2;ratioP2
75930;SDS011;64609;47.052;15.462;2023-07-08T00:03:14;5.93;;;4.82;;
75930;SDS011;64609;47.052;15.462;2023-07-08T00:05:41;9.93;;;5.43;;
75930;SDS011;64609;47.052;15.462;2023-07-08T00:08:13;7.75;;;5.40;;
75930;SDS011;64609;47.052;15.462;2023-07-08T00:10:39;10.63;;;5.55;;
75930;SDS011;64609;47.052;15.462;2023-07-08T00:13:05;8.98;;;5.47;;
75930;SDS011;64609;47.052;15.462;2023-07-08T00:15:31;9.00;;;5.22;;
75930;SDS011;64609;47.052;15.462;2023-07-08T00:18:00;12.40;;;5.43;;
75930;SDS011;64609;47.052;15.462;2023-07-08T00:20:32;9.63;;;5.40;;
75930;SDS011;64609;47.052;15.462;2023-07-08T00:23:01;9.27;;;5.50;;
75930;SDS011;64609;47.052;15.462;2023-07-08T00:25:28;7.75;;;5.70;;
75930;SDS011;64609;47.052;15.462;2023-07-08T00:27:55;8.75;;;5.55;;
75930;SDS011;64609;47.052;15.462;2023-07-08T00:30:22;15.43;;;5.63;;
75930;SDS011;64609;47.052;15.462;2023-07-08T00:32:48;11.10;;;5.70;;
75930;SDS011;64609;47.052;15.462;2023-07-08T00:35:19;11.88;;;5.63;;
75930;SDS011;64609;47.052;15.462;2023-07-08T00:37:54;11.45;;;5.38;;
75930;SDS011;64609;47.052;15.462;2023-07-08T00:40:26;8.57;;;4.97;;
75930;SDS011;64609;47.052;15.462;2023-07-08T00:42:53;8.30;;;5.13;;
75930;SDS011;64609;47.052;15.462;2023-07-08T00:45:29;13.00;;;5.43;;
75930;SDS011;64609;47.052;15.462;2023-07-08T00:50:46;10.60;;;6.30;;
75930;SDS011;64609;47.052;15.462;2023-07-08T00:53:26;10.85;;;6.45;;
75930;SDS011;64609;47.052;15.462;2023-07-08T00:55:59;11.20;;;5.20;;
75930;SDS011;64609;47.052;15.462;2023-07-08T00:58:27;8.40;;;5.53;;
75930;SDS011;64609;47.052;15.462;2023-07-08T01:00:58;9.88;;;5.35;;
75930;SDS011;64609;47.052;15.462;2023-07-08T01:03:25;9.25;;;5.75;;
75930;SDS011;64609;47.052;15.462;2023-07-08T01:05:53;9.13;;;5.65;;
75930;SDS011;64609;47.052;15.462;2023-07-08T01:08:25;11.50;;;5.35;;
75930;SDS011;64609;47.052;15.462;2023-07-08T01:10:54;8.07;;;5.63;;
75930;SDS011;64609;47.052;15.462;2023-07-08T01:13:26;10.27;;;5.68;;
75930;SDS011;64609;47.052;15.462;2023-07-08T01:15:59;10.10;;;5.43;;
75930;SDS011;64609;47.052;15.462;2023-07-08T01:18:25;10.50;;;5.72;;
75930;SDS011;64609;47.052;15.462;2023-07-08T01:20:51;10.80;;;5.30;;
75930;SDS011;64609;47.052;15.462;2023-07-08T01:23:20;9.63;;;5.10;;
75930;SDS011;64609;47.052;15.462;2023-07-08T01:25:46;11.70;;;5.80;;
75930;SDS011;64609;47.052;15.462;2023-07-08T01:28:12;6.70;;;5.05;;
75930;SDS011;64609;47.052;15.462;2023-07-08T01:30:40;9.93;;;5.03;;
75930;SDS011;64609;47.052;15.462;2023-07-08T01:33:20;9.63;;;5.40;;
75930;SDS011;64609;47.052;15.462;2023-07-08T01:35:49;9.25;;;5.28;;
75930;SDS011;64609;47.052;15.462;2023-07-08T01:38:17;8.60;;;5.57;;
75930;SDS011;64609;47.052;15.462;2023-07-08T01:40:52;8.68;;;6.13;;
75930;SDS011;64609;47.052;15.462;2023-07-08T01:43:20;13.45;;;5.68;;
75930;SDS011;64609;47.052;15.462;2023-07-08T01:45:46;9.32;;;5.47;;
75930;SDS011;64609;47.052;15.462;2023-07-08T01:48:14;13.02;;;5.30;;
75930;SDS011;64609;47.052;15.462;2023-07-08T01:51:04;7.95;;;5.10;;
75930;SDS011;64609;47.052;15.462;2023-07-08T01:53:31;10.82;;;6.05;;
75930;SDS011;64609;47.052;15.462;2023-07-08T01:56:01;10.52;;;6.32;;
75930;SDS011;64609;47.052;15.462;2023-07-08T01:58:28;8.27;;;5.57;;
75930;SDS011;64609;47.052;15.462;2023-07-08T02:00:54;10.02;;;5.40;;
75930;SDS011;64609;47.052;15.462;2023-07-08T02:03:20;12.75;;;5.35;;
75930;SDS011;64609;47.052;15.462;2023-07-08T02:05:46;9.93;;;5.85;;
75930;SDS011;64609;47.052;15.462;2023-07-08T02:08:11;11.40;;;5.30;;
75930;SDS011;64609;47.052;15.462;2023-07-08T02:10:38;10.82;;;5.63;;
75930;SDS011;64609;47.052;15.462;2023-07-08T02:13:05;8.82;;;6.00;;
75930;SDS011;64609;47.052;15.462;2023-07-08T02:15:31;11.63;;;5.88;;
75930;SDS011;64609;47.052;15.462;2023-07-08T02:17:57;8.82;;;5.60;;
75930;SDS011;64609;47.052;15.462;2023-07-08T02:20:22;13.88;;;6.03;;
75930;SDS011;64609;47.052;15.462;2023-07-08T02:22:48;7.45;;;5.05;;
75930;SDS011;64609;47.052;15.462;2023-07-08T02:25:14;8.43;;;5.28;;
75930;SDS011;64609;47.052;15.462;2023-07-08T02:27:41;7.05;;;5.38;;
75930;SDS011;64609;47.052;15.462;2023-07-08T02:30:07;8.15;;;5.57;;
75930;SDS011;64609;47.052;15.462;2023-07-08T02:32:34;12.18;;;5.65;;
75930;SDS011;64609;47.052;15.462;2023-07-08T02:35:01;11.45;;;5.47;;
75930;SDS011;64609;47.052;15.462;2023-07-08T02:37:28;10.27;;;5.65;;
75930;SDS011;64609;47.052;15.462;2023-07-08T02:39:54;9.93;;;5.90;;
75930;SDS011;64609;47.052;15.462;2023-07-08T02:42:20;13.88;;;6.13;;
75930;SDS011;64609;47.052;15.462;2023-07-08T02:44:46;11.38;;;5.95;;
75930;SDS011;64609;47.052;15.462;2023-07-08T02:47:12;9.30;;;6.18;;
75930;SDS011;64609;47.052;15.462;2023-07-08T02:49:37;7.78;;;5.82;;
75930;SDS011;64609;47.052;15.462;2023-07-08T02:52:03;10.23;;;5.70;;
75930;SDS011;64609;47.052;15.462;2023-07-08T02:54:29;9.88;;;5.82;;
75930;SDS011;64609;47.052;15.462;2023-07-08T02:56:54;9.35;;;5.88;;
75930;SDS011;64609;47.052;15.462;2023-07-08T02:59:20;9.18;;;5.70;;
75930;SDS011;64609;47.052;15.462;2023-07-08T03:01:46;9.63;;;5.30;;
75930;SDS011;64609;47.052;15.462;2023-07-08T03:04:12;10.25;;;5.78;;
75930;SDS011;64609;47.052;15.462;2023-07-08T03:06:41;10.95;;;5.72;;
75930;SDS011;64609;47.052;15.462;2023-07-08T03:09:10;11.38;;;6.03;;
75930;SDS011;64609;47.052;15.462;2023-07-08T03:11:37;12.95;;;5.95;;
75930;SDS011;64609;47.052;15.462;2023-07-08T03:14:03;9.13;;;6.35;;
75930;SDS011;64609;47.052;15.462;2023-07-08T03:16:29;9.73;;;6.40;;
75930;SDS011;64609;47.052;15.462;2023-07-08T03:18:55;13.43;;;6.50;;
75930;SDS011;64609;47.052;15.462;2023-07-08T03:21:21;12.07;;;6.35;;
75930;SDS011;64609;47.052;15.462;2023-07-08T03:23:47;9.90;;;6.60;;
75930;SDS011;64609;47.052;15.462;2023-07-08T03:26:24;12.10;;;6.00;;
75930;SDS011;64609;47.052;15.462;2023-07-08T03:28:51;13.32;;;7.10;;
75930;SDS011;64609;47.052;15.462;2023-07-08T03:31:18;13.82;;;6.88;;
75930;SDS011;64609;47.052;15.462;2023-07-08T03:33:43;9.23;;;6.88;;
75930;SDS011;64609;47.052;15.462;2023-07-08T03:36:11;10.95;;;7.32;;
75930;SDS011;64609;47.052;15.462;2023-07-08T03:38:48;10.55;;;6.55;;
75930;SDS011;64609;47.052;15.462;2023-07-08T03:41:15;16.42;;;8.07;;
75930;SDS011;64609;47.052;15.462;2023-07-08T03:43:41;11.38;;;7.25;;
75930;SDS011;64609;47.052;15.462;2023-07-08T03:46:09;12.05;;;7.45;;
75930;SDS011;64609;47.052;15.462;2023-07-08T03:48:36;17.73;;;7.03;;
75930;SDS011;64609;47.052;15.462;2023-07-08T03:51:02;14.27;;;7.43;;
75930;SDS011;64609;47.052;15.462;2023-07-08T03:53:28;11.43;;;7.80;;
75930;SDS011;64609;47.052;15.462;2023-07-08T03:55:53;12.68;;;7.05;;
75930;SDS011;64609;47.052;15.462;2023-07-08T03:58:19;16.75;;;8.50;;
75930;SDS011;64609;47.052;15.462;2023-07-08T04:00:44;13.07;;;7.35;;
75930;SDS011;64609;47.052;15.462;2023-07-08T04:03:10;14.23;;;7.93;;
75930;SDS011;64609;47.052;15.462;2023-07-08T04:05:36;11.68;;;7.78;;
75930;SDS011;64609;47.052;15.462;2023-07-08T04:08:02;15.45;;;8.10;;
75930;SDS011;64609;47.052;15.462;2023-07-08T04:10:28;16.20;;;7.88;;
75930;SDS011;64609;47.052;15.462;2023-07-08T04:12:53;10.75;;;7.75;;
75930;SDS011;64609;47.052;15.462;2023-07-08T04:15:19;12.55;;;7.32;;
75930;SDS011;64609;47.052;15.462;2023-07-08T04:17:53;17.48;;;7.97;;
75930;SDS011;64609;47.052;15.462;2023-07-08T04:20:20;13.30;;;8.05;;
75930;SDS011;64609;47.052;15.462;2023-07-08T04:22:46;12.48;;;7.15;;
75930;SDS011;64609;47.052;15.462;2023-07-08T04:25:12;15.65;;;8.60;;
75930;SDS011;64609;47.052;15.462;2023-07-08T04:27:39;13.10;;;7.60;;
75930;SDS011;64609;47.052;15.462;2023-07-08T04:30:06;14.07;;;8.45;;
75930;SDS011;64609;47.052;15.462;2023-07-08T04:32:32;12.90;;;8.55;;
75930;SDS011;64609;47.052;15.462;2023-07-08T04:34:57;21.70;;;9.10;;
75930;SDS011;64609;47.052;15.462;2023-07-08T04:37:23;17.20;;;8.75;;
75930;SDS011;64609;47.052;15.462;2023-07-08T04:39:49;13.77;;;8.27;;
75930;SDS011;64609;47.052;15.462;2023-07-08T04:42:14;15.82;;;8.70;;
75930;SDS011;64609;47.052;15.462;2023-07-08T04:44:42;21.55;;;9.07;;
75930;SDS011;64609;47.052;15.462;2023-07-08T04:47:08;24.92;;;8.90;;
75930;SDS011;64609;47.052;15.462;2023-07-08T04:49:37;11.15;;;7.78;;
75930;SDS011;64609;47.052;15.462;2023-07-08T04:52:03;15.25;;;8.05;;
75930;SDS011;64609;47.052;15.462;2023-07-08T04:54:29;16.98;;;9.20;;
75930;SDS011;64609;47.052;15.462;2023-07-08T04:56:54;14.55;;;6.93;;
75930;SDS011;64609;47.052;15.462;2023-07-08T04:59:21;12.27;;;7.35;;
75930;SDS011;64609;47.052;15.462;2023-07-08T05:01:49;10.60;;;6.80;;
75930;SDS011;64609;47.052;15.462;2023-07-08T05:04:16;11.73;;;6.63;;
75930;SDS011;64609;47.052;15.462;2023-07-08T05:06:43;11.70;;;6.35;;
75930;SDS011;64609;47.052;15.462;2023-07-08T05:09:09;10.32;;;6.18;;
75930;SDS011;64609;47.052;15.462;2023-07-08T05:11:35;13.43;;;6.30;;
75930;SDS011;64609;47.052;15.462;2023-07-08T05:14:01;9.13;;;6.05;;
75930;SDS011;64609;47.052;15.462;2023-07-08T05:16:28;9.65;;;5.65;;
75930;SDS011;64609;47.052;15.462;2023-07-08T05:18:54;9.77;;;5.90;;
75930;SDS011;64609;47.052;15.462;2023-07-08T05:21:20;9.07;;;5.93;;
75930;SDS011;64609;47.052;15.462;2023-07-08T05:23:48;8.95;;;6.30;;
75930;SDS011;64609;47.052;15.462;2023-07-08T05:26:14;10.27;;;5.90;;
75930;SDS011;64609;47.052;15.462;2023-07-08T05:28:40;11.57;;;6.20;;
75930;SDS011;64609;47.052;15.462;2023-07-08T05:31:06;12.73;;;6.05;;
75930;SDS011;64609;47.052;15.462;2023-07-08T05:33:32;9.63;;;5.30;;
75930;SDS011;64609;47.052;15.462;2023-07-08T05:35:58;11.93;;;6.35;;
75930;SDS011;64609;47.052;15.462;2023-07-08T05:38:24;13.65;;;6.05;;
75930;SDS011;64609;47.052;15.462;2023-07-08T05:40:51;11.70;;;5.78;;
75930;SDS011;64609;47.052;15.462;2023-07-08T05:43:21;9.90;;;5.85;;
75930;SDS011;64609;47.052;15.462;2023-07-08T05:45:47;9.63;;;5.63;;
75930;SDS011;64609;47.052;15.462;2023-07-08T05:48:13;11.23;;;5.50;;
75930;SDS011;64609;47.052;15.462;2023-07-08T05:50:39;10.88;;;5.45;;
75930;SDS011;64609;47.052;15.462;2023-07-08T05:53:05;13.48;;;5.65;;
75930;SDS011;64609;47.052;15.462;2023-07-08T05:55:34;11.87;;;5.77;;
75930;SDS011;64609;47.052;15.462;2023-07-08T05:58:00;8.88;;;4.95;;
75930;SDS011;64609;47.052;15.462;2023-07-08T06:00:25;8.02;;;5.40;;
75930;SDS011;64609;47.052;15.462;2023-07-08T06:02:51;9.48;;;5.53;;
75930;SDS011;64609;47.052;15.462;2023-07-08T06:05:17;9.93;;;5.28;;
75930;SDS011;64609;47.052;15.462;2023-07-08T06:07:43;8.65;;;5.80;;
75930;SDS011;64609;47.052;15.462;2023-07-08T06:10:08;10.13;;;5.47;;
75930;SDS011;64609;47.052;15.462;2023-07-08T06:12:34;9.80;;;5.25;;
75930;SDS011;64609;47.052;15.462;2023-07-08T06:15:00;10.88;;;5.40;;
75930;SDS011;64609;47.052;15.462;2023-07-08T06:17:26;11.95;;;5.53;;
75930;SDS011;64609;47.052;15.462;2023-07-08T06:19:51;8.05;;;5.20;;
75930;SDS011;64609;47.052;15.462;2023-07-08T06:22:17;6.82;;;5.22;;
75930;SDS011;64609;47.052;15.462;2023-07-08T06:24:43;16.27;;;5.68;;
75930;SDS011;64609;47.052;15.462;2023-07-08T06:27:08;15.20;;;5.60;;
75930;SDS011;64609;47.052;15.462;2023-07-08T06:29:34;8.40;;;5.47;;
75930;SDS011;64609;47.052;15.462;2023-07-08T06:32:00;9.65;;;5.25;;
75930;SDS011;64609;47.052;15.462;2023-07-08T06:34:27;8.57;;;5.70;;
75930;SDS011;64609;47.052;15.462;2023-07-08T06:36:52;9.10;;;5.65;;
75930;SDS011;64609;47.052;15.462;2023-07-08T06:39:18;8.05;;;5.30;;
75930;SDS011;64609;47.052;15.462;2023-07-08T06:41:44;7.50;;;5.43;;
75930;SDS011;64609;47.052;15.462;2023-07-08T06:44:10;10.93;;;5.43;;
75930;SDS011;64609;47.052;15.462;2023-07-08T06:46:36;9.25;;;5.10;;
75930;SDS011;64609;47.052;15.462;2023-07-08T06:49:02;11.27;;;5.60;;
75930;SDS011;64609;47.052;15.462;2023-07-08T06:51:27;12.90;;;5.82;;
75930;SDS011;64609;47.052;15.462;2023-07-08T06:53:53;8.13;;;4.80;;
75930;SDS011;64609;47.052;15.462;2023-07-08T06:56:19;13.50;;;5.88;;
75930;SDS011;64609;47.052;15.462;2023-07-08T06:58:45;11.65;;;5.63;;
75930;SDS011;64609;47.052;15.462;2023-07-08T07:01:11;7.85;;;5.22;;
75930;SDS011;64609;47.052;15.462;2023-07-08T07:03:37;13.57;;;5.50;;
75930;SDS011;64609;47.052;15.462;2023-07-08T07:06:03;9.55;;;5.13;;
75930;SDS011;64609;47.052;15.462;2023-07-08T07:08:28;11.38;;;5.35;;
75930;SDS011;64609;47.052;15.462;2023-07-08T07:10:54;7.43;;;5.13;;
75930;SDS011;64609;47.052;15.462;2023-07-08T07:13:19;8.90;;;5.25;;
75930;SDS011;64609;47.052;15.462;2023-07-08T07:15:47;9.73;;;5.57;;
75930;SDS011;64609;47.052;15.462;2023-07-08T07:18:14;9.55;;;5.32;;
75930;SDS011;64609;47.052;15.462;2023-07-08T07:20:46;9.38;;;5.80;;
75930;SDS011;64609;47.052;15.462;2023-07-08T07:23:14;9.68;;;5.25;;
75930;SDS011;64609;47.052;15.462;2023-07-08T07:25:40;10.30;;;5.20;;
75930;SDS011;64609;47.052;15.462;2023-07-08T07:28:05;6.22;;;5.28;;
75930;SDS011;64609;47.052;15.462;2023-07-08T07:30:31;9.93;;;5.40;;
75930;SDS011;64609;47.052;15.462;2023-07-08T07:33:00;7.40;;;5.18;;
75930;SDS011;64609;47.052;15.462;2023-07-08T07:35:26;10.65;;;5.45;;
75930;SDS011;64609;47.052;15.462;2023-07-08T07:37:52;9.30;;;5.53;;
75930;SDS011;64609;47.052;15.462;2023-07-08T07:40:17;11.00;;;5.70;;
75930;SDS011;64609;47.052;15.462;2023-07-08T07:42:44;7.90;;;5.28;;
75930;SDS011;64609;47.052;15.462;2023-07-08T07:45:10;10.10;;;5.25;;
75930;SDS011;64609;47.052;15.462;2023-07-08T07:47:37;10.80;;;5.63;;
75930;SDS011;64609;47.052;15.462;2023-07-08T07:50:04;11.95;;;5.30;;
75930;SDS011;64609;47.052;15.462;2023-07-08T07:52:31;19.98;;;5.95;;
75930;SDS011;64609;47.052;15.462;2023-07-08T07:54:57;8.52;;;5.35;;
75930;SDS011;64609;47.052;15.462;2023-07-08T07:57:23;9.55;;;5.38;;
75930;SDS011;64609;47.052;15.462;2023-07-08T07:59:48;6.45;;;5.18;;
75930;SDS011;64609;47.052;15.462;2023-07-08T08:02:15;7.07;;;5.15;;
75930;SDS011;64609;47.052;15.462;2023-07-08T08:04:41;8.15;;;5.20;;
75930;SDS011;64609;47.052;15.462;2023-07-08T08:07:06;11.90;;;5.38;;
75930;SDS011;64609;47.052;15.462;2023-07-08T08:09:32;8.55;;;5.40;;
75930;SDS011;64609;47.052;15.462;2023-07-08T08:11:58;7.72;;;5.13;;
75930;SDS011;64609;47.052;15.462;2023-07-08T08:14:25;6.38;;;4.65;;
75930;SDS011;64609;47.052;15.462;2023-07-08T08:16:51;7.63;;;4.85;;
75930;SDS011;64609;47.052;15.462;2023-07-08T08:19:17;6.50;;;4.70;;
75930;SDS011;64609;47.052;15.462;2023-07-08T08:21:42;6.63;;;4.55;;
75930;SDS011;64609;47.052;15.462;2023-07-08T08:24:08;7.60;;;4.85;;
75930;SDS011;64609;47.052;15.462;2023-07-08T08:26:34;11.63;;;4.15;;
75930;SDS011;64609;47.052;15.462;2023-07-08T08:29:00;12.13;;;4.63;;
75930;SDS011;64609;47.052;15.462;2023-07-08T08:31:26;6.35;;;4.30;;
75930;SDS011;64609;47.052;15.462;2023-07-08T08:33:52;7.57;;;4.28;;
75930;SDS011;64609;47.052;15.462;2023-07-08T08:36:17;5.32;;;3.72;;
75930;SDS011;64609;47.052;15.462;2023-07-08T08:38:43;11.02;;;4.20;;
75930;SDS011;64609;47.052;15.462;2023-07-08T08:41:12;11.52;;;5.15;;
75930;SDS011;64609;47.052;15.462;2023-07-08T08:43:39;9.15;;;4.38;;
75930;SDS011;64609;47.052;15.462;2023-07-08T08:52:09;7.03;;;4.60;;
75930;SDS011;64609;47.052;15.462;2023-07-08T08:54:35;5.97;;;4.40;;
75930;SDS011;64609;47.052;15.462;2023-07-08T08:57:06;10.65;;;4.20;;
75930;SDS011;64609;47.052;15.462;2023-07-08T08:59:56;6.10;;;4.10;;
75930;SDS011;64609;47.052;15.462;2023-07-08T09:02:40;9.18;;;4.53;;
75930;SDS011;64609;47.052;15.462;2023-07-08T09:05:14;8.15;;;3.92;;
75930;SDS011;64609;47.052;15.462;2023-07-08T09:13:18;7.45;;;4.10;;
75930;SDS011;64609;47.052;15.462;2023-07-08T09:15:51;8.00;;;4.00;;
75930;SDS011;64609;47.052;15.462;2023-07-08T09:18:27;8.20;;;3.90;;
75930;SDS011;64609;47.052;15.462;2023-07-08T09:21:06;5.43;;;3.58;;
75930;SDS011;64609;47.052;15.462;2023-07-08T09:23:45;8.27;;;4.32;;
75930;SDS011;64609;47.052;15.462;2023-07-08T09:26:16;6.40;;;3.80;;
75930;SDS011;64609;47.052;15.462;2023-07-08T09:28:46;8.38;;;4.05;;
75930;SDS011;64609;47.052;15.462;2023-07-08T09:31:20;7.97;;;3.72;;
75930;SDS011;64609;47.052;15.462;2023-07-08T09:33:53;5.88;;;3.92;;
75930;SDS011;64609;47.052;15.462;2023-07-08T09:36:30;5.82;;;4.15;;
75930;SDS011;64609;47.052;15.462;2023-07-08T09:38:55;5.55;;;3.97;;
75930;SDS011;64609;47.052;15.462;2023-07-08T09:41:32;6.45;;;3.90;;
75930;SDS011;64609;47.052;15.462;2023-07-08T09:44:12;6.72;;;4.05;;
75930;SDS011;64609;47.052;15.462;2023-07-08T09:46:54;9.27;;;4.30;;
75930;SDS011;64609;47.052;15.462;2023-07-08T09:49:45;9.65;;;4.10;;
75930;SDS011;64609;47.052;15.462;2023-07-08T09:52:11;6.05;;;4.30;;
75930;SDS011;64609;47.052;15.462;2023-07-08T09:54:39;7.72;;;4.05;;
75930;SDS011;64609;47.052;15.462;2023-07-08T09:57:16;8.60;;;3.97;;
75930;SDS011;64609;47.052;15.462;2023-07-08T09:59:53;8.50;;;4.00;;
75930;SDS011;64609;47.052;15.462;2023-07-08T10:02:30;6.55;;;4.22;;
75930;SDS011;64609;47.052;15.462;2023-07-08T10:04:59;8.48;;;4.10;;
75930;SDS011;64609;47.052;15.462;2023-07-08T10:07:29;7.82;;;3.90;;
75930;SDS011;64609;47.052;15.462;2023-07-08T10:09:57;7.15;;;4.22;;
75930;SDS011;64609;47.052;15.462;2023-07-08T10:12:26;7.93;;;4.20;;
75930;SDS011;64609;47.052;15.462;2023-07-08T10:17:45;6.43;;;4.20;;
75930;SDS011;64609;47.052;15.462;2023-07-08T10:20:11;5.60;;;4.07;;
75930;SDS011;64609;47.052;15.462;2023-07-08T10:22:41;7.03;;;3.80;;
75930;SDS011;64609;47.052;15.462;2023-07-08T10:31:23;7.10;;;4.20;;
75930;SDS011;64609;47.052;15.462;2023-07-08T10:33:59;6.45;;;3.80;;
75930;SDS011;64609;47.052;15.462;2023-07-08T10:36:40;5.25;;;4.32;;
75930;SDS011;64609;47.052;15.462;2023-07-08T10:39:19;5.38;;;3.88;;
75930;SDS011;64609;47.052;15.462;2023-07-08T10:42:09;6.95;;;4.20;;
75930;SDS011;64609;47.052;15.462;2023-07-08T11:00:33;7.82;;;4.47;;
75930;SDS011;64609;47.052;15.462;2023-07-08T11:05:47;6.35;;;4.25;;
75930;SDS011;64609;47.052;15.462;2023-07-08T11:11:05;5.13;;;3.72;;
75930;SDS011;64609;47.052;15.462;2023-07-08T11:13:37;8.88;;;4.18;;
75930;SDS011;64609;47.052;15.462;2023-07-08T11:16:12;8.68;;;4.22;;
75930;SDS011;64609;47.052;15.462;2023-07-08T11:24:11;6.80;;;4.00;;
75930;SDS011;64609;47.052;15.462;2023-07-08T11:26:50;8.40;;;4.65;;
75930;SDS011;64609;47.052;15.462;2023-07-08T11:29:25;8.48;;;4.05;;
75930;SDS011;64609;47.052;15.462;2023-07-08T11:32:11;9.73;;;4.25;;
75930;SDS011;64609;47.052;15.462;2023-07-08T11:34:41;7.82;;;4.35;;
75930;SDS011;64609;47.052;15.462;2023-07-08T11:37:09;7.70;;;4.60;;
75930;SDS011;64609;47.052;15.462;2023-07-08T11:39:43;7.78;;;4.38;;
75930;SDS011;64609;47.052;15.462;2023-07-08T11:44:42;5.13;;;4.28;;
75930;SDS011;64609;47.052;15.462;2023-07-08T11:47:16;6.00;;;4.13;;
75930;SDS011;64609;47.052;15.462;2023-07-08T11:49:46;5.43;;;4.18;;
75930;SDS011;64609;47.052;15.462;2023-07-08T11:52:16;11.77;;;4.30;;
75930;SDS011;64609;47.052;15.462;2023-07-08T11:54:47;6.57;;;4.20;;
75930;SDS011;64609;47.052;15.462;2023-07-08T11:57:18;7.05;;;4.47;;
75930;SDS011;64609;47.052;15.462;2023-07-08T11:59:56;6.57;;;4.53;;
75930;SDS011;64609;47.052;15.462;2023-07-08T12:02:49;11.10;;;4.78;;
75930;SDS011;64609;47.052;15.462;2023-07-08T12:05:15;6.47;;;4.28;;
75930;SDS011;64609;47.052;15.462;2023-07-08T12:07:41;8.88;;;4.78;;
75930;SDS011;64609;47.052;15.462;2023-07-08T12:10:15;7.65;;;4.43;;
75930;SDS011;64609;47.052;15.462;2023-07-08T12:12:42;8.07;;;4.80;;
75930;SDS011;64609;47.052;15.462;2023-07-08T12:15:21;6.25;;;4.35;;
75930;SDS011;64609;47.052;15.462;2023-07-08T12:17:52;8.93;;;4.68;;
75930;SDS011;64609;47.052;15.462;2023-07-08T12:22:47;7.65;;;4.30;;
75930;SDS011;64609;47.052;15.462;2023-07-08T12:25:14;11.55;;;5.05;;
75930;SDS011;64609;47.052;15.462;2023-07-08T12:27:42;6.60;;;4.28;;
75930;SDS011;64609;47.052;15.462;2023-07-08T12:30:10;5.95;;;4.40;;
75930;SDS011;64609;47.052;15.462;2023-07-08T12:32:37;7.10;;;4.15;;
75930;SDS011;64609;47.052;15.462;2023-07-08T12:35:03;6.05;;;4.43;;
75930;SDS011;64609;47.052;15.462;2023-07-08T12:37:30;8.90;;;4.60;;
75930;SDS011;64609;47.052;15.462;2023-07-08T12:39:57;6.15;;;4.30;;
75930;SDS011;64609;47.052;15.462;2023-07-08T12:42:29;7.80;;;4.40;;
75930;SDS011;64609;47.052;15.462;2023-07-08T12:44:55;7.47;;;4.40;;
75930;SDS011;64609;47.052;15.462;2023-07-08T12:47:21;15.32;;;4.68;;
75930;SDS011;64609;47.052;15.462;2023-07-08T12:49:48;5.88;;;3.97;;
75930;SDS011;64609;47.052;15.462;2023-07-08T12:52:23;7.72;;;4.05;;
75930;SDS011;64609;47.052;15.462;2023-07-08T12:54:49;7.22;;;3.85;;
75930;SDS011;64609;47.052;15.462;2023-07-08T12:57:18;6.90;;;4.28;;
75930;SDS011;64609;47.052;15.462;2023-07-08T12:59:44;7.45;;;4.32;;
75930;SDS011;64609;47.052;15.462;2023-07-08T13:02:17;7.32;;;4.40;;
75930;SDS011;64609;47.052;15.462;2023-07-08T13:04:46;7.30;;;4.25;;
75930;SDS011;64609;47.052;15.462;2023-07-08T13:07:33;11.00;;;4.82;;
75930;SDS011;64609;47.052;15.462;2023-07-08T13:10:02;8.02;;;4.07;;
75930;SDS011;64609;47.052;15.462;2023-07-08T13:12:29;10.75;;;4.60;;
75930;SDS011;64609;47.052;15.462;2023-07-08T13:14:58;7.23;;;4.27;;
75930;SDS011;64609;47.052;15.462;2023-07-08T13:17:24;5.45;;;4.30;;
75930;SDS011;64609;47.052;15.462;2023-07-08T13:19:50;9.68;;;4.35;;
75930;SDS011;64609;47.052;15.462;2023-07-08T13:22:18;5.93;;;4.22;;
75930;SDS011;64609;47.052;15.462;2023-07-08T13:24:45;6.13;;;4.33;;
75930;SDS011;64609;47.052;15.462;2023-07-08T13:27:22;6.93;;;4.30;;
75930;SDS011;64609;47.052;15.462;2023-07-08T13:29:53;6.65;;;4.35;;
75930;SDS011;64609;47.052;15.462;2023-07-08T13:32:20;6.40;;;3.95;;
75930;SDS011;64609;47.052;15.462;2023-07-08T13:34:56;9.30;;;4.25;;
75930;SDS011;64609;47.052;15.462;2023-07-08T13:37:21;7.30;;;4.30;;
75930;SDS011;64609;47.052;15.462;2023-07-08T13:39:51;7.38;;;4.75;;
75930;SDS011;64609;47.052;15.462;2023-07-08T13:42:18;7.85;;;4.28;;
75930;SDS011;64609;47.052;15.462;2023-07-08T13:44:45;6.45;;;4.50;;
75930;SDS011;64609;47.052;15.462;2023-07-08T13:50:27;9.07;;;3.97;;
75930;SDS011;64609;47.052;15.462;2023-07-08T13:52:53;8.10;;;4.70;;
75930;SDS011;64609;47.052;15.462;2023-07-08T13:55:20;5.47;;;4.20;;
75930;SDS011;64609;47.052;15.462;2023-07-08T13:57:54;6.00;;;4.32;;
75930;SDS011;64609;47.052;15.462;2023-07-08T14:00:28;7.23;;;5.03;;
75930;SDS011;64609;47.052;15.462;2023-07-08T14:02:55;9.50;;;4.55;;
75930;SDS011;64609;47.052;15.462;2023-07-08T14:05:21;9.00;;;4.85;;
75930;SDS011;64609;47.052;15.462;2023-07-08T14:07:46;10.15;;;4.72;;
75930;SDS011;64609;47.052;15.462;2023-07-08T14:10:13;6.07;;;4.20;;
75930;SDS011;64609;47.052;15.462;2023-07-08T14:12:39;8.10;;;4.50;;
75930;SDS011;64609;47.052;15.462;2023-07-08T14:15:05;6.55;;;4.50;;
75930;SDS011;64609;47.052;15.462;2023-07-08T14:17:32;8.25;;;4.93;;
75930;SDS011;64609;47.052;15.462;2023-07-08T14:19:57;9.07;;;4.60;;
75930;SDS011;64609;47.052;15.462;2023-07-08T14:24:53;7.57;;;4.35;;
75930;SDS011;64609;47.052;15.462;2023-07-08T14:27:20;6.35;;;4.35;;
75930;SDS011;64609;47.052;15.462;2023-07-08T14:29:50;9.25;;;5.20;;
75930;SDS011;64609;47.052;15.462;2023-07-08T14:32:24;7.90;;;4.40;;
75930;SDS011;64609;47.052;15.462;2023-07-08T14:35:09;8.93;;;4.82;;
75930;SDS011;64609;47.052;15.462;2023-07-08T14:37:42;8.55;;;4.45;;
75930;SDS011;64609;47.052;15.462;2023-07-08T14:40:18;7.15;;;4.72;;
75930;SDS011;64609;47.052;15.462;2023-07-08T14:45:50;8.40;;;4.63;;
75930;SDS011;64609;47.052;15.462;2023-07-08T14:48:17;9.77;;;4.47;;
75930;SDS011;64609;47.052;15.462;2023-07-08T14:50:43;8.07;;;4.43;;
75930;SDS011;64609;47.052;15.462;2023-07-08T14:53:09;6.15;;;4.55;;
75930;SDS011;64609;47.052;15.462;2023-07-08T14:55:35;6.82;;;4.32;;
75930;SDS011;64609;47.052;15.462;2023-07-08T14:58:01;6.60;;;4.65;;
75930;SDS011;64609;47.052;15.462;2023-07-08T15:00:28;6.70;;;4.38;;
75930;SDS011;64609;47.052;15.462;2023-07-08T15:02:54;7.13;;;4.53;;
75930;SDS011;64609;47.052;15.462;2023-07-08T15:05:22;10.40;;;4.63;;
75930;SDS011;64609;47.052;15.462;2023-07-08T15:07:56;8.35;;;4.18;;
75930;SDS011;64609;47.052;15.462;2023-07-08T15:10:24;9.02;;;4.00;;
75930;SDS011;64609;47.052;15.462;2023-07-08T15:12:51;6.80;;;4.25;;
75930;SDS011;64609;47.052;15.462;2023-07-08T15:15:27;5.03;;;4.25;;
75930;SDS011;64609;47.052;15.462;2023-07-08T15:17:53;7.32;;;4.30;;
75930;SDS011;64609;47.052;15.462;2023-07-08T15:20:19;9.32;;;5.05;;
75930;SDS011;64609;47.052;15.462;2023-07-08T15:22:46;6.85;;;4.00;;
75930;SDS011;64609;47.052;15.462;2023-07-08T15:25:13;8.40;;;3.85;;
75930;SDS011;64609;47.052;15.462;2023-07-08T15:27:40;9.43;;;4.10;;
75930;SDS011;64609;47.052;15.462;2023-07-08T15:32:43;9.90;;;4.68;;
75930;SDS011;64609;47.052;15.462;2023-07-08T15:35:17;5.55;;;4.35;;
75930;SDS011;64609;47.052;15.462;2023-07-08T15:37:44;6.43;;;4.43;;
75930;SDS011;64609;47.052;15.462;2023-07-08T15:40:14;8.25;;;4.75;;
75930;SDS011;64609;47.052;15.462;2023-07-08T15:42:42;8.88;;;4.70;;
75930;SDS011;64609;47.052;15.462;2023-07-08T15:45:14;7.63;;;4.68;;
75930;SDS011;64609;47.052;15.462;2023-07-08T15:47:44;7.35;;;4.30;;